sensor_id;sensor_type;location;lat;lon;timestamp;temperature;humidity
15906;DHT22;8051;50.820;4.884;2023-02-11T00:02:14;6.00;99.90
15906;DHT22;8051;50.820;4.884;2023-02-11T00:04:42;6.00;99.90
15906;DHT22;8051;50.820;4.884;2023-02-11T00:07:09;6.00;99.90
15906;DHT22;8051;50.820;4.884;2023-02-11T00:09:38;5.90;99.90
15906;DHT22;8051;50.820;4.884;2023-02-11T00:12:06;5.90;99.90
15906;DHT22;8051;50.820;4.884;2023-02-11T00:14:33;5.90;99.90
15906;DHT22;8051;50.820;4.884;2023-02-11T00:17:01;5.80;99.90
15906;DHT22;8051;50.820;4.884;2023-02-11T00:19:28;5.80;99.90
15906;DHT22;8051;50.820;4.884;2023-02-11T00:21:56;5.70;99.90
15906;DHT22;8051;50.820;4.884;2023-02-11T00:24:23;5.60;99.90
15906;DHT22;8051;50.820;4.884;2023-02-11T00:26:52;5.60;99.90
15906;DHT22;8051;50.820;4.884;2023-02-11T00:29:20;5.50;99.90
15906;DHT22;8051;50.820;4.884;2023-02-11T00:31:47;5.40;99.90
15906;DHT22;8051;50.820;4.884;2023-02-11T00:34:15;5.40;99.90
15906;DHT22;8051;50.820;4.884;2023-02-11T00:36:42;5.30;99.90
15906;DHT22;8051;50.820;4.884;2023-02-11T00:39:10;5.30;99.90
15906;DHT22;8051;50.820;4.884;2023-02-11T00:41:38;5.30;99.90
15906;DHT22;8051;50.820;4.884;2023-02-11T00:44:07;5.20;99.90
15906;DHT22;8051;50.820;4.884;2023-02-11T00:46:34;5.20;99.90
15906;DHT22;8051;50.820;4.884;2023-02-11T00:49:02;5.20;99.90
15906;DHT22;8051;50.820;4.884;2023-02-11T00:51:29;5.10;99.90
15906;DHT22;8051;50.820;4.884;2023-02-11T00:53:57;5.10;99.90
15906;DHT22;8051;50.820;4.884;2023-02-11T00:56:24;5.00;99.90
15906;DHT22;8051;50.820;4.884;2023-02-11T00:58:52;5.10;99.90
15906;DHT22;8051;50.820;4.884;2023-02-11T01:01:21;5.00;99.90
15906;DHT22;8051;50.820;4.884;2023-02-11T01:03:48;5.00;99.90
15906;DHT22;8051;50.820;4.884;2023-02-11T01:06:16;5.00;99.90
15906;DHT22;8051;50.820;4.884;2023-02-11T01:08:44;4.90;99.90
15906;DHT22;8051;50.820;4.884;2023-02-11T01:11:13;5.00;99.90
15906;DHT22;8051;50.820;4.884;2023-02-11T01:13:41;5.00;99.90
15906;DHT22;8051;50.820;4.884;2023-02-11T01:16:10;4.90;99.90
15906;DHT22;8051;50.820;4.884;2023-02-11T01:18:39;5.00;99.90
15906;DHT22;8051;50.820;4.884;2023-02-11T01:21:09;5.00;99.90
15906;DHT22;8051;50.820;4.884;2023-02-11T01:23:36;5.00;99.90
15906;DHT22;8051;50.820;4.884;2023-02-11T01:26:04;5.00;99.90
15906;DHT22;8051;50.820;4.884;2023-02-11T01:28:32;5.00;99.90
15906;DHT22;8051;50.820;4.884;2023-02-11T01:31:00;4.90;99.90
15906;DHT22;8051;50.820;4.884;2023-02-11T01:33:28;5.00;99.90
15906;DHT22;8051;50.820;4.884;2023-02-11T01:35:59;5.00;99.90
15906;DHT22;8051;50.820;4.884;2023-02-11T01:38:28;5.00;99.90
15906;DHT22;8051;50.820;4.884;2023-02-11T01:40:57;5.00;99.90
15906;DHT22;8051;50.820;4.884;2023-02-11T01:43:26;5.00;99.90
15906;DHT22;8051;50.820;4.884;2023-02-11T01:46:00;5.10;99.90
15906;DHT22;8051;50.820;4.884;2023-02-11T01:48:30;5.20;99.90
15906;DHT22;8051;50.820;4.884;2023-02-11T01:51:03;5.20;99.90
15906;DHT22;8051;50.820;4.884;2023-02-11T01:53:31;5.30;99.90
15906;DHT22;8051;50.820;4.884;2023-02-11T01:56:18;5.30;99.90
15906;DHT22;8051;50.820;4.884;2023-02-11T01:59:08;5.40;99.90
15906;DHT22;8051;50.820;4.884;2023-02-11T02:01:38;5.40;99.90
15906;DHT22;8051;50.820;4.884;2023-02-11T02:04:07;5.50;99.90
15906;DHT22;8051;50.820;4.884;2023-02-11T02:06:39;5.50;99.90
15906;DHT22;8051;50.820;4.884;2023-02-11T02:09:14;5.50;99.90
15906;DHT22;8051;50.820;4.884;2023-02-11T02:11:43;5.50;99.90
15906;DHT22;8051;50.820;4.884;2023-02-11T02:14:10;5.50;99.90
15906;DHT22;8051;50.820;4.884;2023-02-11T02:16:38;5.50;99.90
15906;DHT22;8051;50.820;4.884;2023-02-11T02:19:36;5.50;99.90
15906;DHT22;8051;50.820;4.884;2023-02-11T02:22:38;5.50;99.90
15906;DHT22;8051;50.820;4.884;2023-02-11T02:25:34;5.50;99.90
15906;DHT22;8051;50.820;4.884;2023-02-11T02:28:21;5.60;99.90
15906;DHT22;8051;50.820;4.884;2023-02-11T02:34:00;5.60;99.90
15906;DHT22;8051;50.820;4.884;2023-02-11T02:36:33;5.60;99.90
15906;DHT22;8051;50.820;4.884;2023-02-11T02:39:06;5.60;99.90
15906;DHT22;8051;50.820;4.884;2023-02-11T02:41:35;5.60;99.90
15906;DHT22;8051;50.820;4.884;2023-02-11T02:44:04;5.60;99.90
15906;DHT22;8051;50.820;4.884;2023-02-11T02:46:34;5.60;99.90
15906;DHT22;8051;50.820;4.884;2023-02-11T02:49:06;5.60;99.90
15906;DHT22;8051;50.820;4.884;2023-02-11T02:52:03;5.70;99.90
15906;DHT22;8051;50.820;4.884;2023-02-11T02:55:04;5.70;99.90
15906;DHT22;8051;50.820;4.884;2023-02-11T02:57:41;5.70;99.90
15906;DHT22;8051;50.820;4.884;2023-02-11T03:00:21;5.80;99.90
15906;DHT22;8051;50.820;4.884;2023-02-11T03:02:59;5.80;99.90
15906;DHT22;8051;50.820;4.884;2023-02-11T03:05:38;5.80;99.90
15906;DHT22;8051;50.820;4.884;2023-02-11T03:08:13;5.80;99.90
15906;DHT22;8051;50.820;4.884;2023-02-11T03:10:45;5.80;99.90
15906;DHT22;8051;50.820;4.884;2023-02-11T03:13:14;5.80;99.90
15906;DHT22;8051;50.820;4.884;2023-02-11T03:15:45;5.80;99.90
15906;DHT22;8051;50.820;4.884;2023-02-11T03:18:17;5.80;99.90
15906;DHT22;8051;50.820;4.884;2023-02-11T03:20:49;5.80;99.90
15906;DHT22;8051;50.820;4.884;2023-02-11T03:23:22;5.80;99.90
15906;DHT22;8051;50.820;4.884;2023-02-11T03:25:54;5.80;99.90
15906;DHT22;8051;50.820;4.884;2023-02-11T03:28:28;5.80;99.90
15906;DHT22;8051;50.820;4.884;2023-02-11T03:31:03;5.80;99.90
15906;DHT22;8051;50.820;4.884;2023-02-11T03:33:36;5.80;99.90
15906;DHT22;8051;50.820;4.884;2023-02-11T03:36:10;5.80;99.90
15906;DHT22;8051;50.820;4.884;2023-02-11T03:38:44;5.80;99.90
15906;DHT22;8051;50.820;4.884;2023-02-11T03:41:14;5.80;99.90
15906;DHT22;8051;50.820;4.884;2023-02-11T03:43:45;5.80;99.90
15906;DHT22;8051;50.820;4.884;2023-02-11T03:46:17;5.80;99.90
15906;DHT22;8051;50.820;4.884;2023-02-11T03:48:48;5.80;99.90
15906;DHT22;8051;50.820;4.884;2023-02-11T03:51:20;5.90;99.90
15906;DHT22;8051;50.820;4.884;2023-02-11T03:53:52;5.90;99.90
15906;DHT22;8051;50.820;4.884;2023-02-11T03:56:23;5.90;99.90
15906;DHT22;8051;50.820;4.884;2023-02-11T03:58:52;5.90;99.90
15906;DHT22;8051;50.820;4.884;2023-02-11T04:01:19;5.90;99.90
15906;DHT22;8051;50.820;4.884;2023-02-11T04:03:46;5.90;99.90
15906;DHT22;8051;50.820;4.884;2023-02-11T04:06:14;5.90;99.90
15906;DHT22;8051;50.820;4.884;2023-02-11T04:08:43;5.90;99.90
15906;DHT22;8051;50.820;4.884;2023-02-11T04:11:10;5.90;99.90
15906;DHT22;8051;50.820;4.884;2023-02-11T04:13:38;5.90;99.90
15906;DHT22;8051;50.820;4.884;2023-02-11T04:16:05;5.90;99.90
15906;DHT22;8051;50.820;4.884;2023-02-11T04:18:33;5.90;99.90
15906;DHT22;8051;50.820;4.884;2023-02-11T04:21:00;5.90;99.90
15906;DHT22;8051;50.820;4.884;2023-02-11T04:23:28;5.90;99.90
15906;DHT22;8051;50.820;4.884;2023-02-11T04:25:57;5.90;99.90
15906;DHT22;8051;50.820;4.884;2023-02-11T04:28:25;5.90;99.90
15906;DHT22;8051;50.820;4.884;2023-02-11T04:30:54;5.90;99.90
15906;DHT22;8051;50.820;4.884;2023-02-11T04:33:22;5.90;99.90
15906;DHT22;8051;50.820;4.884;2023-02-11T04:35:50;5.90;99.90
15906;DHT22;8051;50.820;4.884;2023-02-11T04:38:17;5.90;99.90
15906;DHT22;8051;50.820;4.884;2023-02-11T04:40:45;5.90;99.90
15906;DHT22;8051;50.820;4.884;2023-02-11T04:43:14;5.90;99.90
15906;DHT22;8051;50.820;4.884;2023-02-11T04:45:41;5.90;99.90
15906;DHT22;8051;50.820;4.884;2023-02-11T04:48:09;5.90;99.90
15906;DHT22;8051;50.820;4.884;2023-02-11T04:50:36;5.90;99.90
15906;DHT22;8051;50.820;4.884;2023-02-11T04:53:04;5.90;99.90
15906;DHT22;8051;50.820;4.884;2023-02-11T04:55:31;5.90;99.90
15906;DHT22;8051;50.820;4.884;2023-02-11T04:57:58;5.90;99.90
15906;DHT22;8051;50.820;4.884;2023-02-11T05:00:27;5.90;99.90
15906;DHT22;8051;50.820;4.884;2023-02-11T05:02:55;5.90;99.90
15906;DHT22;8051;50.820;4.884;2023-02-11T05:05:22;5.90;99.90
15906;DHT22;8051;50.820;4.884;2023-02-11T05:07:50;5.90;99.90
15906;DHT22;8051;50.820;4.884;2023-02-11T05:10:17;5.90;99.90
15906;DHT22;8051;50.820;4.884;2023-02-11T05:12:47;5.90;99.90
15906;DHT22;8051;50.820;4.884;2023-02-11T05:15:15;5.90;99.90
15906;DHT22;8051;50.820;4.884;2023-02-11T05:17:44;5.90;99.90
15906;DHT22;8051;50.820;4.884;2023-02-11T05:20:11;5.90;99.90
15906;DHT22;8051;50.820;4.884;2023-02-11T05:22:39;5.90;99.90
15906;DHT22;8051;50.820;4.884;2023-02-11T05:25:07;5.80;99.90
15906;DHT22;8051;50.820;4.884;2023-02-11T05:27:34;5.80;99.90
15906;DHT22;8051;50.820;4.884;2023-02-11T05:30:02;5.80;99.90
15906;DHT22;8051;50.820;4.884;2023-02-11T05:32:30;5.80;99.90
15906;DHT22;8051;50.820;4.884;2023-02-11T05:34:59;5.90;99.90
15906;DHT22;8051;50.820;4.884;2023-02-11T05:37:26;5.90;99.90
15906;DHT22;8051;50.820;4.884;2023-02-11T05:39:54;5.80;99.90
15906;DHT22;8051;50.820;4.884;2023-02-11T05:42:21;5.80;99.90
15906;DHT22;8051;50.820;4.884;2023-02-11T05:44:49;5.90;99.90
15906;DHT22;8051;50.820;4.884;2023-02-11T05:47:16;5.90;99.90
15906;DHT22;8051;50.820;4.884;2023-02-11T05:49:44;5.90;99.90
15906;DHT22;8051;50.820;4.884;2023-02-11T05:52:13;5.90;99.90
15906;DHT22;8051;50.820;4.884;2023-02-11T05:54:40;5.90;99.90
15906;DHT22;8051;50.820;4.884;2023-02-11T05:57:08;6.00;99.90
15906;DHT22;8051;50.820;4.884;2023-02-11T05:59:35;5.90;99.90
15906;DHT22;8051;50.820;4.884;2023-02-11T06:02:03;5.90;99.90
15906;DHT22;8051;50.820;4.884;2023-02-11T06:04:32;6.00;99.90
15906;DHT22;8051;50.820;4.884;2023-02-11T06:07:00;6.00;99.90
15906;DHT22;8051;50.820;4.884;2023-02-11T06:09:29;6.00;99.90
15906;DHT22;8051;50.820;4.884;2023-02-11T06:11:56;6.00;99.90
15906;DHT22;8051;50.820;4.884;2023-02-11T06:14:24;6.00;99.90
15906;DHT22;8051;50.820;4.884;2023-02-11T06:16:51;6.10;99.90
15906;DHT22;8051;50.820;4.884;2023-02-11T06:19:19;6.10;99.90
15906;DHT22;8051;50.820;4.884;2023-02-11T06:21:46;6.10;99.90
15906;DHT22;8051;50.820;4.884;2023-02-11T06:24:14;6.10;99.90
15906;DHT22;8051;50.820;4.884;2023-02-11T06:26:43;6.10;99.90
15906;DHT22;8051;50.820;4.884;2023-02-11T06:29:10;6.10;99.90
15906;DHT22;8051;50.820;4.884;2023-02-11T06:31:38;6.10;99.90
15906;DHT22;8051;50.820;4.884;2023-02-11T06:34:06;6.00;99.90
15906;DHT22;8051;50.820;4.884;2023-02-11T06:36:34;6.10;99.90
15906;DHT22;8051;50.820;4.884;2023-02-11T06:39:02;6.10;99.90
15906;DHT22;8051;50.820;4.884;2023-02-11T06:41:30;6.10;99.90
15906;DHT22;8051;50.820;4.884;2023-02-11T06:43:59;6.00;99.90
15906;DHT22;8051;50.820;4.884;2023-02-11T06:46:26;6.00;99.90
15906;DHT22;8051;50.820;4.884;2023-02-11T06:48:54;6.10;99.90
15906;DHT22;8051;50.820;4.884;2023-02-11T06:51:21;6.10;99.90
15906;DHT22;8051;50.820;4.884;2023-02-11T06:53:49;6.10;99.90
15906;DHT22;8051;50.820;4.884;2023-02-11T06:56:19;6.10;99.90
15906;DHT22;8051;50.820;4.884;2023-02-11T06:58:50;6.10;99.90
15906;DHT22;8051;50.820;4.884;2023-02-11T07:01:19;6.10;99.90
15906;DHT22;8051;50.820;4.884;2023-02-11T07:03:48;6.10;99.90
15906;DHT22;8051;50.820;4.884;2023-02-11T07:06:17;6.10;99.90
15906;DHT22;8051;50.820;4.884;2023-02-11T07:08:45;6.10;99.90
15906;DHT22;8051;50.820;4.884;2023-02-11T07:11:14;6.10;99.90
15906;DHT22;8051;50.820;4.884;2023-02-11T07:13:42;6.10;99.90
15906;DHT22;8051;50.820;4.884;2023-02-11T07:16:11;6.10;99.90
15906;DHT22;8051;50.820;4.884;2023-02-11T07:18:41;6.10;99.90
15906;DHT22;8051;50.820;4.884;2023-02-11T07:21:10;6.10;99.90
15906;DHT22;8051;50.820;4.884;2023-02-11T07:23:38;6.10;99.90
15906;DHT22;8051;50.820;4.884;2023-02-11T07:26:07;6.10;99.90
15906;DHT22;8051;50.820;4.884;2023-02-11T07:28:36;6.10;99.90
15906;DHT22;8051;50.820;4.884;2023-02-11T07:31:06;6.10;99.90
15906;DHT22;8051;50.820;4.884;2023-02-11T07:33:34;6.10;99.90
15906;DHT22;8051;50.820;4.884;2023-02-11T07:36:05;6.10;99.90
15906;DHT22;8051;50.820;4.884;2023-02-11T07:38:33;6.10;99.90
15906;DHT22;8051;50.820;4.884;2023-02-11T07:41:02;6.20;99.90
15906;DHT22;8051;50.820;4.884;2023-02-11T07:43:31;6.20;99.90
15906;DHT22;8051;50.820;4.884;2023-02-11T07:46:01;6.20;99.90
15906;DHT22;8051;50.820;4.884;2023-02-11T07:48:29;6.20;99.90
15906;DHT22;8051;50.820;4.884;2023-02-11T07:51:06;6.30;99.90
15906;DHT22;8051;50.820;4.884;2023-02-11T07:53:33;6.30;99.90
15906;DHT22;8051;50.820;4.884;2023-02-11T07:56:02;6.40;99.90
15906;DHT22;8051;50.820;4.884;2023-02-11T07:58:30;6.40;99.90
15906;DHT22;8051;50.820;4.884;2023-02-11T08:01:00;6.40;99.90
15906;DHT22;8051;50.820;4.884;2023-02-11T08:03:28;6.40;99.90
15906;DHT22;8051;50.820;4.884;2023-02-11T08:05:56;6.50;99.90
15906;DHT22;8051;50.820;4.884;2023-02-11T08:08:26;6.50;99.90
15906;DHT22;8051;50.820;4.884;2023-02-11T08:10:54;6.50;99.90
15906;DHT22;8051;50.820;4.884;2023-02-11T08:13:21;6.60;99.90
15906;DHT22;8051;50.820;4.884;2023-02-11T08:15:49;6.60;99.90
15906;DHT22;8051;50.820;4.884;2023-02-11T08:18:16;6.60;99.90
15906;DHT22;8051;50.820;4.884;2023-02-11T08:20:43;6.70;99.90
15906;DHT22;8051;50.820;4.884;2023-02-11T08:23:11;6.60;99.90
15906;DHT22;8051;50.820;4.884;2023-02-11T08:25:40;6.60;99.90
15906;DHT22;8051;50.820;4.884;2023-02-11T08:28:07;6.60;99.90
15906;DHT22;8051;50.820;4.884;2023-02-11T08:30:35;6.70;99.90
15906;DHT22;8051;50.820;4.884;2023-02-11T08:33:02;6.70;99.90
15906;DHT22;8051;50.820;4.884;2023-02-11T08:35:30;6.80;99.90
15906;DHT22;8051;50.820;4.884;2023-02-11T08:37:58;6.80;99.90
15906;DHT22;8051;50.820;4.884;2023-02-11T08:40:25;6.80;99.90
15906;DHT22;8051;50.820;4.884;2023-02-11T08:42:54;6.80;99.90
15906;DHT22;8051;50.820;4.884;2023-02-11T08:45:21;6.80;99.90
15906;DHT22;8051;50.820;4.884;2023-02-11T08:47:49;6.80;99.90
15906;DHT22;8051;50.820;4.884;2023-02-11T08:50:17;6.90;99.90
15906;DHT22;8051;50.820;4.884;2023-02-11T08:52:44;6.90;99.90
15906;DHT22;8051;50.820;4.884;2023-02-11T08:55:11;6.80;99.90
15906;DHT22;8051;50.820;4.884;2023-02-11T08:57:39;6.90;99.90
15906;DHT22;8051;50.820;4.884;2023-02-11T09:00:10;6.90;99.90
15906;DHT22;8051;50.820;4.884;2023-02-11T09:02:37;6.90;99.90
15906;DHT22;8051;50.820;4.884;2023-02-11T09:05:05;6.90;99.90
15906;DHT22;8051;50.820;4.884;2023-02-11T09:07:33;6.90;99.90
15906;DHT22;8051;50.820;4.884;2023-02-11T09:10:00;7.00;99.90
15906;DHT22;8051;50.820;4.884;2023-02-11T09:12:28;7.00;99.90
15906;DHT22;8051;50.820;4.884;2023-02-11T09:14:55;7.00;99.90
15906;DHT22;8051;50.820;4.884;2023-02-11T09:17:24;7.00;99.90
15906;DHT22;8051;50.820;4.884;2023-02-11T09:19:52;7.10;99.90
15906;DHT22;8051;50.820;4.884;2023-02-11T09:22:19;7.10;99.90
15906;DHT22;8051;50.820;4.884;2023-02-11T09:24:47;7.10;99.90
15906;DHT22;8051;50.820;4.884;2023-02-11T09:27:15;7.10;99.90
15906;DHT22;8051;50.820;4.884;2023-02-11T09:29:42;7.10;99.90
15906;DHT22;8051;50.820;4.884;2023-02-11T09:32:09;7.10;99.90
15906;DHT22;8051;50.820;4.884;2023-02-11T09:34:38;7.10;99.90
15906;DHT22;8051;50.820;4.884;2023-02-11T09:37:06;7.00;99.90
15906;DHT22;8051;50.820;4.884;2023-02-11T09:39:33;7.10;99.90
15906;DHT22;8051;50.820;4.884;2023-02-11T09:45:13;7.10;99.90
15906;DHT22;8051;50.820;4.884;2023-02-11T09:47:47;7.20;99.90
15906;DHT22;8051;50.820;4.884;2023-02-11T09:50:23;7.20;99.90
15906;DHT22;8051;50.820;4.884;2023-02-11T09:52:57;7.20;99.90
15906;DHT22;8051;50.820;4.884;2023-02-11T09:55:27;7.20;99.90
15906;DHT22;8051;50.820;4.884;2023-02-11T09:57:56;7.20;99.90
15906;DHT22;8051;50.820;4.884;2023-02-11T10:00:27;7.30;99.90
15906;DHT22;8051;50.820;4.884;2023-02-11T10:03:28;7.30;99.90
15906;DHT22;8051;50.820;4.884;2023-02-11T10:06:12;7.40;99.90
15906;DHT22;8051;50.820;4.884;2023-02-11T10:08:52;7.30;99.90
15906;DHT22;8051;50.820;4.884;2023-02-11T10:11:28;7.30;99.90
15906;DHT22;8051;50.820;4.884;2023-02-11T10:14:03;7.30;99.90
15906;DHT22;8051;50.820;4.884;2023-02-11T10:16:44;7.30;99.90
15906;DHT22;8051;50.820;4.884;2023-02-11T10:19:25;7.30;99.90
15906;DHT22;8051;50.820;4.884;2023-02-11T10:22:06;7.30;99.90
15906;DHT22;8051;50.820;4.884;2023-02-11T10:24:36;7.40;99.90
15906;DHT22;8051;50.820;4.884;2023-02-11T10:27:13;7.50;99.90
15906;DHT22;8051;50.820;4.884;2023-02-11T10:29:47;7.60;99.90
15906;DHT22;8051;50.820;4.884;2023-02-11T10:32:26;7.60;99.90
15906;DHT22;8051;50.820;4.884;2023-02-11T10:34:59;7.70;99.90
15906;DHT22;8051;50.820;4.884;2023-02-11T10:37:29;7.70;99.90
15906;DHT22;8051;50.820;4.884;2023-02-11T10:39:57;7.70;99.90
15906;DHT22;8051;50.820;4.884;2023-02-11T10:42:24;7.70;99.90
15906;DHT22;8051;50.820;4.884;2023-02-11T10:44:57;7.80;99.90
15906;DHT22;8051;50.820;4.884;2023-02-11T10:47:29;7.90;99.90
15906;DHT22;8051;50.820;4.884;2023-02-11T10:49:58;7.90;99.90
15906;DHT22;8051;50.820;4.884;2023-02-11T10:52:30;8.00;99.90
15906;DHT22;8051;50.820;4.884;2023-02-11T10:55:00;8.00;99.90
15906;DHT22;8051;50.820;4.884;2023-02-11T10:57:32;8.00;99.90
15906;DHT22;8051;50.820;4.884;2023-02-11T11:00:05;8.00;99.90
15906;DHT22;8051;50.820;4.884;2023-02-11T11:02:35;8.10;99.90
15906;DHT22;8051;50.820;4.884;2023-02-11T11:05:15;8.10;99.90
15906;DHT22;8051;50.820;4.884;2023-02-11T11:07:53;8.10;99.90
15906;DHT22;8051;50.820;4.884;2023-02-11T11:10:39;8.10;99.90
15906;DHT22;8051;50.820;4.884;2023-02-11T11:13:27;8.20;99.90
15906;DHT22;8051;50.820;4.884;2023-02-11T11:16:23;8.20;99.90
15906;DHT22;8051;50.820;4.884;2023-02-11T11:18:52;8.20;99.90
15906;DHT22;8051;50.820;4.884;2023-02-11T11:21:22;8.10;99.90
15906;DHT22;8051;50.820;4.884;2023-02-11T11:23:54;8.10;99.90
15906;DHT22;8051;50.820;4.884;2023-02-11T11:26:22;8.20;99.90
15906;DHT22;8051;50.820;4.884;2023-02-11T11:28:54;8.30;99.90
15906;DHT22;8051;50.820;4.884;2023-02-11T11:31:24;8.30;99.90
15906;DHT22;8051;50.820;4.884;2023-02-11T11:33:55;8.20;99.90
15906;DHT22;8051;50.820;4.884;2023-02-11T11:36:31;8.10;99.90
15906;DHT22;8051;50.820;4.884;2023-02-11T11:39:09;8.20;99.90
15906;DHT22;8051;50.820;4.884;2023-02-11T11:41:49;8.10;99.90
15906;DHT22;8051;50.820;4.884;2023-02-11T11:44:24;8.10;99.90
15906;DHT22;8051;50.820;4.884;2023-02-11T11:47:13;8.20;99.90
15906;DHT22;8051;50.820;4.884;2023-02-11T11:49:47;8.20;99.90
15906;DHT22;8051;50.820;4.884;2023-02-11T11:52:23;8.20;99.90
15906;DHT22;8051;50.820;4.884;2023-02-11T11:55:03;8.20;99.90
15906;DHT22;8051;50.820;4.884;2023-02-11T11:57:34;8.30;99.90
15906;DHT22;8051;50.820;4.884;2023-02-11T12:00:04;8.40;99.90
15906;DHT22;8051;50.820;4.884;2023-02-11T12:03:02;8.30;99.90
15906;DHT22;8051;50.820;4.884;2023-02-11T12:05:36;8.30;99.90
15906;DHT22;8051;50.820;4.884;2023-02-11T12:08:15;8.30;99.90
15906;DHT22;8051;50.820;4.884;2023-02-11T12:11:02;8.30;99.90
15906;DHT22;8051;50.820;4.884;2023-02-11T12:13:42;8.20;99.90
15906;DHT22;8051;50.820;4.884;2023-02-11T12:16:22;8.30;99.90
15906;DHT22;8051;50.820;4.884;2023-02-11T12:19:23;8.30;99.90
15906;DHT22;8051;50.820;4.884;2023-02-11T12:22:00;8.30;99.90
15906;DHT22;8051;50.820;4.884;2023-02-11T12:24:43;8.40;99.90
15906;DHT22;8051;50.820;4.884;2023-02-11T12:27:22;8.40;99.90
15906;DHT22;8051;50.820;4.884;2023-02-11T12:30:00;8.40;99.90
15906;DHT22;8051;50.820;4.884;2023-02-11T12:32:34;8.40;99.90
15906;DHT22;8051;50.820;4.884;2023-02-11T12:35:24;8.50;99.90
15906;DHT22;8051;50.820;4.884;2023-02-11T12:38:11;8.50;99.90
15906;DHT22;8051;50.820;4.884;2023-02-11T12:40:45;8.50;99.90
15906;DHT22;8051;50.820;4.884;2023-02-11T12:43:20;8.50;99.90
15906;DHT22;8051;50.820;4.884;2023-02-11T12:46:13;8.60;99.90
15906;DHT22;8051;50.820;4.884;2023-02-11T12:48:56;8.60;99.90
15906;DHT22;8051;50.820;4.884;2023-02-11T12:51:40;8.50;99.90
15906;DHT22;8051;50.820;4.884;2023-02-11T12:54:18;8.50;99.90
15906;DHT22;8051;50.820;4.884;2023-02-11T12:56:51;8.50;99.90
15906;DHT22;8051;50.820;4.884;2023-02-11T12:59:33;8.40;99.90
15906;DHT22;8051;50.820;4.884;2023-02-11T13:02:14;8.50;99.90
15906;DHT22;8051;50.820;4.884;2023-02-11T13:04:48;8.60;99.90
15906;DHT22;8051;50.820;4.884;2023-02-11T13:07:21;8.70;99.90
15906;DHT22;8051;50.820;4.884;2023-02-11T13:09:53;8.60;99.90
15906;DHT22;8051;50.820;4.884;2023-02-11T13:12:24;8.60;99.90
15906;DHT22;8051;50.820;4.884;2023-02-11T13:15:14;8.70;99.90
15906;DHT22;8051;50.820;4.884;2023-02-11T13:17:50;8.70;99.90
15906;DHT22;8051;50.820;4.884;2023-02-11T13:20:33;8.80;99.90
15906;DHT22;8051;50.820;4.884;2023-02-11T13:23:10;8.80;99.90
15906;DHT22;8051;50.820;4.884;2023-02-11T13:25:43;8.90;99.90
15906;DHT22;8051;50.820;4.884;2023-02-11T13:28:26;8.90;99.90
15906;DHT22;8051;50.820;4.884;2023-02-11T13:30:58;8.90;99.90
15906;DHT22;8051;50.820;4.884;2023-02-11T13:33:33;8.90;99.90
15906;DHT22;8051;50.820;4.884;2023-02-11T13:39:02;8.70;99.90
15906;DHT22;8051;50.820;4.884;2023-02-11T13:41:33;8.70;99.90
15906;DHT22;8051;50.820;4.884;2023-02-11T13:44:21;8.70;99.90
15906;DHT22;8051;50.820;4.884;2023-02-11T13:46:56;8.80;99.90
15906;DHT22;8051;50.820;4.884;2023-02-11T13:49:30;9.00;99.90
15906;DHT22;8051;50.820;4.884;2023-02-11T13:52:00;9.00;99.90
15906;DHT22;8051;50.820;4.884;2023-02-11T13:54:31;8.90;99.90
15906;DHT22;8051;50.820;4.884;2023-02-11T13:57:21;8.80;99.90
15906;DHT22;8051;50.820;4.884;2023-02-11T13:59:50;8.80;99.90
15906;DHT22;8051;50.820;4.884;2023-02-11T14:02:26;8.80;99.90
15906;DHT22;8051;50.820;4.884;2023-02-11T14:05:28;8.80;99.90
15906;DHT22;8051;50.820;4.884;2023-02-11T14:08:22;8.80;99.90
15906;DHT22;8051;50.820;4.884;2023-02-11T14:11:10;8.80;99.90
15906;DHT22;8051;50.820;4.884;2023-02-11T14:14:16;8.80;99.90
15906;DHT22;8051;50.820;4.884;2023-02-11T14:19:49;8.90;99.90
15906;DHT22;8051;50.820;4.884;2023-02-11T14:22:19;8.90;99.90
15906;DHT22;8051;50.820;4.884;2023-02-11T14:24:53;8.90;99.90
15906;DHT22;8051;50.820;4.884;2023-02-11T14:27:34;8.80;99.90
15906;DHT22;8051;50.820;4.884;2023-02-11T14:30:30;8.90;99.90
15906;DHT22;8051;50.820;4.884;2023-02-11T14:33:18;8.80;99.90
15906;DHT22;8051;50.820;4.884;2023-02-11T14:38:51;8.90;99.90
15906;DHT22;8051;50.820;4.884;2023-02-11T14:41:25;8.90;99.90
15906;DHT22;8051;50.820;4.884;2023-02-11T14:43:55;8.80;99.90
15906;DHT22;8051;50.820;4.884;2023-02-11T14:46:24;8.90;99.90
15906;DHT22;8051;50.820;4.884;2023-02-11T14:48:57;8.90;99.90
15906;DHT22;8051;50.820;4.884;2023-02-11T14:51:29;8.90;99.90
15906;DHT22;8051;50.820;4.884;2023-02-11T14:54:01;8.80;99.90
15906;DHT22;8051;50.820;4.884;2023-02-11T14:56:30;8.80;99.90
15906;DHT22;8051;50.820;4.884;2023-02-11T14:58:59;8.80;99.90
15906;DHT22;8051;50.820;4.884;2023-02-11T15:01:30;8.80;99.90
15906;DHT22;8051;50.820;4.884;2023-02-11T15:04:00;8.90;99.90
15906;DHT22;8051;50.820;4.884;2023-02-11T15:06:31;8.90;99.90
15906;DHT22;8051;50.820;4.884;2023-02-11T15:09:02;8.80;99.90
15906;DHT22;8051;50.820;4.884;2023-02-11T15:11:32;8.80;99.90
15906;DHT22;8051;50.820;4.884;2023-02-11T15:14:07;8.70;99.90
15906;DHT22;8051;50.820;4.884;2023-02-11T15:16:40;8.80;99.90
15906;DHT22;8051;50.820;4.884;2023-02-11T15:19:18;8.80;99.90
15906;DHT22;8051;50.820;4.884;2023-02-11T15:21:48;8.80;99.90
15906;DHT22;8051;50.820;4.884;2023-02-11T15:24:25;8.70;99.90
15906;DHT22;8051;50.820;4.884;2023-02-11T15:27:02;8.70;99.90
15906;DHT22;8051;50.820;4.884;2023-02-11T15:29:35;8.70;99.90
15906;DHT22;8051;50.820;4.884;2023-02-11T15:32:05;8.70;99.90
15906;DHT22;8051;50.820;4.884;2023-02-11T15:34:33;8.70;99.90
15906;DHT22;8051;50.820;4.884;2023-02-11T15:37:03;8.70;99.90
15906;DHT22;8051;50.820;4.884;2023-02-11T15:39:33;8.60;99.90
15906;DHT22;8051;50.820;4.884;2023-02-11T15:42:19;8.60;99.90
15906;DHT22;8051;50.820;4.884;2023-02-11T15:44:47;8.70;99.90
15906;DHT22;8051;50.820;4.884;2023-02-11T15:47:18;8.70;99.90
15906;DHT22;8051;50.820;4.884;2023-02-11T15:49:47;8.70;99.90
15906;DHT22;8051;50.820;4.884;2023-02-11T15:52:23;8.70;99.90
15906;DHT22;8051;50.820;4.884;2023-02-11T15:54:52;8.70;99.90
15906;DHT22;8051;50.820;4.884;2023-02-11T15:57:21;8.70;99.90
15906;DHT22;8051;50.820;4.884;2023-02-11T15:59:50;8.70;99.90
15906;DHT22;8051;50.820;4.884;2023-02-11T16:02:20;8.60;99.90
15906;DHT22;8051;50.820;4.884;2023-02-11T16:04:52;8.70;99.90
15906;DHT22;8051;50.820;4.884;2023-02-11T16:07:41;8.70;99.90
15906;DHT22;8051;50.820;4.884;2023-02-11T16:10:21;8.70;99.90
15906;DHT22;8051;50.820;4.884;2023-02-11T16:13:01;8.70;99.90
15906;DHT22;8051;50.820;4.884;2023-02-11T16:15:41;8.70;99.90
15906;DHT22;8051;50.820;4.884;2023-02-11T16:18:24;8.60;99.90
15906;DHT22;8051;50.820;4.884;2023-02-11T16:20:53;8.60;99.90
15906;DHT22;8051;50.820;4.884;2023-02-11T16:23:24;8.60;99.90
15906;DHT22;8051;50.820;4.884;2023-02-11T16:25:57;8.60;99.90
15906;DHT22;8051;50.820;4.884;2023-02-11T16:28:25;8.60;99.90
15906;DHT22;8051;50.820;4.884;2023-02-11T16:30:54;8.60;99.90
15906;DHT22;8051;50.820;4.884;2023-02-11T16:33:22;8.60;99.90
15906;DHT22;8051;50.820;4.884;2023-02-11T16:35:49;8.60;99.90
15906;DHT22;8051;50.820;4.884;2023-02-11T16:38:17;8.60;99.90
15906;DHT22;8051;50.820;4.884;2023-02-11T16:40:46;8.60;99.90
15906;DHT22;8051;50.820;4.884;2023-02-11T16:43:17;8.60;99.90
15906;DHT22;8051;50.820;4.884;2023-02-11T16:45:45;8.60;99.90
15906;DHT22;8051;50.820;4.884;2023-02-11T16:48:15;8.60;99.90
15906;DHT22;8051;50.820;4.884;2023-02-11T16:50:45;8.60;99.90